createdAt,value
2018-02-16T00:00:22.207Z,1011.18
2018-02-16T00:01:22.162Z,1011.20
2018-02-16T00:02:22.104Z,1011.14
2018-02-16T00:03:22.052Z,1011.18
2018-02-16T00:04:22.051Z,1011.24
2018-02-16T00:05:21.950Z,1011.23
2018-02-16T00:06:21.898Z,1011.26
2018-02-16T00:07:21.846Z,1011.25
2018-02-16T00:08:21.795Z,1011.26
2018-02-16T00:09:21.744Z,1011.26
2018-02-16T00:10:21.692Z,1011.28
2018-02-16T00:11:21.641Z,1011.28
2018-02-16T00:12:21.590Z,1011.24
2018-02-16T00:13:21.539Z,1011.29
2018-02-16T00:14:21.486Z,1011.29
2018-02-16T00:15:21.436Z,1011.34
2018-02-16T00:16:21.385Z,1011.36
2018-02-16T00:17:21.334Z,1011.37
2018-02-16T00:18:21.282Z,1011.40
2018-02-16T00:19:21.231Z,1011.40
2018-02-16T00:20:21.180Z,1011.41
2018-02-16T00:21:21.129Z,1011.41
2018-02-16T00:22:21.077Z,1011.39
2018-02-16T00:23:21.028Z,1011.42
2018-02-16T00:24:20.978Z,1011.41
2018-02-16T00:25:20.926Z,1011.42
2018-02-16T00:26:20.871Z,1011.43
2018-02-16T00:27:20.825Z,1011.43
2018-02-16T00:28:20.820Z,1011.46
2018-02-16T00:29:20.723Z,1011.50
2018-02-16T00:30:20.667Z,1011.49
2018-02-16T00:31:20.616Z,1011.51
2018-02-16T00:32:20.565Z,1011.55
2018-02-16T00:33:20.521Z,1011.58
2018-02-16T00:34:20.463Z,1011.61
2018-02-16T00:35:20.412Z,1011.61
2018-02-16T00:36:20.366Z,1011.64
2018-02-16T00:37:20.311Z,1011.58
2018-02-16T00:38:20.258Z,1011.57
2018-02-16T00:39:20.207Z,1011.62
2018-02-16T00:40:20.157Z,1011.65
2018-02-16T00:41:20.106Z,1011.66
2018-02-16T00:42:20.055Z,1011.66
2018-02-16T00:43:20.004Z,1011.71
2018-02-16T00:44:19.952Z,1011.72
2018-02-16T00:45:19.901Z,1011.74
2018-02-16T00:46:19.850Z,1011.74
2018-02-16T00:47:19.799Z,1011.77
2018-02-16T00:48:19.749Z,1011.81
2018-02-16T00:49:19.698Z,1011.83
2018-02-16T00:50:19.648Z,1011.83
2018-02-16T00:51:19.595Z,1011.91
2018-02-16T00:52:19.544Z,1011.93
2018-02-16T00:53:19.494Z,1011.95
2018-02-16T00:54:19.442Z,1011.96
2018-02-16T00:55:19.392Z,1011.98
2018-02-16T00:56:19.341Z,1011.96
2018-02-16T00:57:19.290Z,1011.96
2018-02-16T00:58:19.238Z,1012.00
2018-02-16T00:59:19.187Z,1012.04
2018-02-16T01:00:19.186Z,1011.98
2018-02-16T01:01:19.086Z,1011.99
2018-02-16T01:02:19.034Z,1012.00
2018-02-16T01:03:18.983Z,1011.99
2018-02-16T01:04:18.934Z,1011.95
2018-02-16T01:05:18.882Z,1011.95
2018-02-16T01:06:18.831Z,1011.99
2018-02-16T01:07:18.780Z,1011.99
2018-02-16T01:08:18.765Z,1011.99
2018-02-16T01:09:18.679Z,1012.02
2018-02-16T01:10:18.627Z,1012.00
2018-02-16T01:11:18.576Z,1012.03
2018-02-16T01:12:18.525Z,1011.99
2018-02-16T01:13:18.475Z,1012.02
2018-02-16T01:14:18.426Z,1012.03
2018-02-16T01:15:18.372Z,1011.99
2018-02-16T01:16:18.320Z,1011.99
2018-02-16T01:17:18.270Z,1012.00
2018-02-16T01:18:18.218Z,1012.05
2018-02-16T01:19:18.170Z,1012.05
2018-02-16T01:20:18.117Z,1012.07
2018-02-16T01:21:18.066Z,1012.01
2018-02-16T01:22:18.014Z,1012.04
2018-02-16T01:23:18.013Z,1012.05
2018-02-16T01:24:17.917Z,1012.09
2018-02-16T01:25:17.861Z,1012.12
2018-02-16T01:26:17.813Z,1012.10
2018-02-16T01:27:17.758Z,1012.15
2018-02-16T01:28:17.707Z,1012.12
2018-02-16T01:29:17.657Z,1012.18
2018-02-16T01:30:17.605Z,1012.12
2018-02-16T01:31:17.554Z,1012.15
2018-02-16T01:32:17.503Z,1012.11
2018-02-16T01:33:17.452Z,1012.06
2018-02-16T01:34:17.400Z,1012.04
2018-02-16T01:35:17.349Z,1012.01
2018-02-16T01:36:17.298Z,1011.91
2018-02-16T01:37:17.248Z,1011.92
2018-02-16T01:38:17.199Z,1011.95
2018-02-16T01:39:17.145Z,1011.90
2018-02-16T01:40:17.094Z,1011.93
2018-02-16T01:41:17.043Z,1011.95
2018-02-16T01:42:16.991Z,1012.09
2018-02-16T01:43:16.941Z,1012.04
2018-02-16T01:44:16.890Z,1012.04
2018-02-16T01:45:16.839Z,1012.12
2018-02-16T01:46:16.787Z,1012.12
2018-02-16T01:47:16.737Z,1012.16
2018-02-16T01:48:16.684Z,1012.16
2018-02-16T01:49:16.634Z,1012.19
2018-02-16T01:50:16.583Z,1012.15
2018-02-16T01:51:16.580Z,1012.17
2018-02-16T01:52:16.479Z,1012.16
2018-02-16T01:53:16.429Z,1012.22
2018-02-16T01:54:16.376Z,1012.22
2018-02-16T01:55:16.327Z,1012.26
2018-02-16T01:56:16.272Z,1012.31
2018-02-16T01:57:16.223Z,1012.34
2018-02-16T01:58:16.170Z,1012.33
2018-02-16T01:59:16.119Z,1012.33
2018-02-16T02:00:16.069Z,1012.32
2018-02-16T02:01:16.017Z,1012.35
2018-02-16T02:02:15.965Z,1012.35
2018-02-16T02:03:15.914Z,1012.27
2018-02-16T02:04:15.863Z,1012.25
2018-02-16T02:05:15.812Z,1012.26
2018-02-16T02:06:15.760Z,1012.27
2018-02-16T02:07:15.708Z,1012.30
2018-02-16T02:08:15.658Z,1012.30
2018-02-16T02:09:15.607Z,1012.31
2018-02-16T02:10:15.554Z,1012.33
2018-02-16T02:11:15.503Z,1012.25
2018-02-16T02:12:15.452Z,1012.24
2018-02-16T02:13:15.401Z,1012.28
2018-02-16T02:14:15.349Z,1012.23
2018-02-16T02:15:15.298Z,1012.32
2018-02-16T02:16:15.247Z,1012.29
2018-02-16T02:17:15.196Z,1012.30
2018-02-16T02:18:15.144Z,1012.30
2018-02-16T02:19:15.093Z,1012.31
2018-02-16T02:20:15.042Z,1012.29
2018-02-16T02:21:14.991Z,1012.29
2018-02-16T02:22:14.945Z,1012.38
2018-02-16T02:23:14.888Z,1012.34
2018-02-16T02:24:14.836Z,1012.42
2018-02-16T02:25:14.785Z,1012.46
2018-02-16T02:26:14.734Z,1012.44
2018-02-16T02:27:14.686Z,1012.47
2018-02-16T02:28:14.632Z,1012.48
2018-02-16T02:29:14.581Z,1012.47
2018-02-16T02:30:14.529Z,1012.56
2018-02-16T02:31:14.477Z,1012.62
2018-02-16T02:32:14.426Z,1012.58
2018-02-16T02:33:14.375Z,1012.59
2018-02-16T02:34:14.330Z,1012.64
2018-02-16T02:35:14.272Z,1012.67
2018-02-16T02:36:14.220Z,1012.70
2018-02-16T02:37:14.169Z,1012.69
2018-02-16T02:38:14.117Z,1012.70
2018-02-16T02:39:14.066Z,1012.74
2018-02-16T02:40:14.016Z,1012.83
2018-02-16T02:41:13.964Z,1012.83
2018-02-16T02:42:13.911Z,1012.89
2018-02-16T02:43:13.860Z,1012.89
2018-02-16T02:44:13.859Z,1012.91
2018-02-16T02:45:13.857Z,1012.90
2018-02-16T02:46:13.706Z,1012.95
2018-02-16T02:47:13.654Z,1012.98
2018-02-16T02:48:13.603Z,1012.95
2018-02-16T02:49:13.551Z,1012.92
2018-02-16T02:50:13.499Z,1012.96
2018-02-16T02:51:13.449Z,1012.99
2018-02-16T02:52:13.397Z,1013.01
2018-02-16T02:53:13.346Z,1013.00
2018-02-16T02:54:13.321Z,1012.99
2018-02-16T02:55:13.244Z,1013.02
2018-02-16T02:56:13.190Z,1013.01
2018-02-16T02:57:13.143Z,1013.07
2018-02-16T02:58:13.087Z,1013.10
2018-02-16T02:59:13.036Z,1013.11
2018-02-16T03:00:12.984Z,1013.10
2018-02-16T03:01:12.933Z,1013.13
2018-02-16T03:02:12.881Z,1013.13
2018-02-16T03:03:12.880Z,1013.13
2018-02-16T03:04:12.778Z,1013.16
2018-02-16T03:05:12.726Z,1013.19
2018-02-16T03:06:12.724Z,1013.22
2018-02-16T03:07:12.623Z,1013.20
2018-02-16T03:08:12.572Z,1013.21
2018-02-16T03:09:12.520Z,1013.21
2018-02-16T03:10:12.468Z,1013.25
2018-02-16T03:11:12.417Z,1013.27
2018-02-16T03:12:12.365Z,1013.27
2018-02-16T03:13:12.313Z,1013.32
2018-02-16T03:14:12.261Z,1013.27
2018-02-16T03:15:12.210Z,1013.23
2018-02-16T03:16:12.159Z,1013.28
2018-02-16T03:17:12.107Z,1013.27
2018-02-16T03:18:12.055Z,1013.32
2018-02-16T03:19:12.004Z,1013.29
2018-02-16T03:20:11.952Z,1013.30
2018-02-16T03:21:11.901Z,1013.31
2018-02-16T03:22:11.848Z,1013.33
2018-02-16T03:23:11.806Z,1013.34
2018-02-16T03:24:11.745Z,1013.36
2018-02-16T03:25:11.695Z,1013.36
2018-02-16T03:26:11.642Z,1013.36
2018-02-16T03:27:11.591Z,1013.42
2018-02-16T03:28:11.541Z,1013.44
2018-02-16T03:29:11.488Z,1013.43
2018-02-16T03:30:11.437Z,1013.45
2018-02-16T03:31:11.384Z,1013.45
2018-02-16T03:32:11.335Z,1013.51
2018-02-16T03:33:11.280Z,1013.52
2018-02-16T03:34:11.233Z,1013.54
2018-02-16T03:35:11.178Z,1013.49
2018-02-16T03:36:11.127Z,1013.52
2018-02-16T03:37:11.076Z,1013.52
2018-02-16T03:38:11.022Z,1013.58
2018-02-16T03:39:10.971Z,1013.56
2018-02-16T03:40:10.919Z,1013.57
2018-02-16T03:41:10.868Z,1013.59
2018-02-16T03:42:10.816Z,1013.58
2018-02-16T03:43:10.765Z,1013.61
2018-02-16T03:44:10.713Z,1013.62
2018-02-16T03:45:10.664Z,1013.59
2018-02-16T03:46:10.609Z,1013.54
2018-02-16T03:47:10.558Z,1013.57
2018-02-16T03:48:10.507Z,1013.54
2018-02-16T03:49:10.455Z,1013.48
2018-02-16T03:50:10.403Z,1013.51
2018-02-16T03:51:10.378Z,1013.51
2018-02-16T03:52:10.299Z,1013.52
2018-02-16T03:53:10.250Z,1013.60
2018-02-16T03:54:10.197Z,1013.61
2018-02-16T03:55:10.146Z,1013.57
2018-02-16T03:56:10.094Z,1013.59
2018-02-16T03:57:10.043Z,1013.62
2018-02-16T03:58:09.993Z,1013.67
2018-02-16T03:59:09.940Z,1013.67
2018-02-16T04:00:09.888Z,1013.62
2018-02-16T04:01:09.837Z,1013.72
2018-02-16T04:02:09.784Z,1013.66
2018-02-16T04:03:09.733Z,1013.75
2018-02-16T04:04:09.682Z,1013.74
2018-02-16T04:05:09.630Z,1013.72
2018-02-16T04:06:09.578Z,1013.77
2018-02-16T04:07:09.527Z,1013.68
2018-02-16T04:08:09.476Z,1013.70
2018-02-16T04:09:09.427Z,1013.73
2018-02-16T04:10:09.372Z,1013.72
2018-02-16T04:11:09.320Z,1013.68
2018-02-16T04:12:09.272Z,1013.75
2018-02-16T04:13:09.217Z,1013.74
2018-02-16T04:14:09.165Z,1013.72
2018-02-16T04:15:09.114Z,1013.77
2018-02-16T04:16:09.063Z,1013.76
2018-02-16T04:17:09.019Z,1013.77
2018-02-16T04:18:08.962Z,1013.79
2018-02-16T04:19:08.907Z,1013.80
2018-02-16T04:20:08.856Z,1013.84
2018-02-16T04:21:08.804Z,1013.86
2018-02-16T04:22:08.752Z,1013.88
2018-02-16T04:23:08.701Z,1013.85
2018-02-16T04:24:08.649Z,1013.87
2018-02-16T04:25:08.598Z,1013.85
2018-02-16T04:26:08.545Z,1013.82
2018-02-16T04:27:08.494Z,1013.84
2018-02-16T04:28:08.444Z,1013.86
2018-02-16T04:29:08.391Z,1013.86
2018-02-16T04:30:08.340Z,1013.88
2018-02-16T04:31:08.289Z,1013.85
2018-02-16T04:32:08.236Z,1013.87
2018-02-16T04:33:08.184Z,1013.85
2018-02-16T04:34:08.134Z,1013.85
2018-02-16T04:35:08.081Z,1013.89
2018-02-16T04:36:08.030Z,1013.86
2018-02-16T04:37:07.979Z,1013.89
2018-02-16T04:38:07.926Z,1013.88
2018-02-16T04:39:07.874Z,1013.95
2018-02-16T04:40:07.823Z,1013.91
2018-02-16T04:41:07.771Z,1013.92
2018-02-16T04:42:07.719Z,1013.96
2018-02-16T04:43:07.667Z,1013.95
2018-02-16T04:44:07.616Z,1013.96
2018-02-16T04:45:07.564Z,1013.97
2018-02-16T04:46:07.512Z,1013.97
2018-02-16T04:47:07.460Z,1013.95
2018-02-16T04:48:07.408Z,1013.99
2018-02-16T04:49:07.357Z,1014.01
2018-02-16T04:50:07.304Z,1014.04
2018-02-16T04:51:07.253Z,1014.04
2018-02-16T04:52:07.201Z,1014.05
2018-02-16T04:53:07.149Z,1014.03
2018-02-16T04:54:07.097Z,1014.03
2018-02-16T04:55:07.045Z,1014.06
2018-02-16T04:56:06.993Z,1014.08
2018-02-16T04:57:06.942Z,1014.08
2018-02-16T04:58:06.889Z,1014.08
2018-02-16T04:59:06.837Z,1014.12
2018-02-16T05:00:06.786Z,1014.10
2018-02-16T05:01:06.734Z,1014.09
2018-02-16T05:02:06.681Z,1014.14
2018-02-16T05:03:06.630Z,1014.15
2018-02-16T05:04:06.628Z,1014.13
2018-02-16T05:05:06.525Z,1014.15
2018-02-16T05:06:06.473Z,1014.14
2018-02-16T05:07:06.421Z,1014.16
2018-02-16T05:08:06.370Z,1014.22
2018-02-16T05:09:06.318Z,1014.22
2018-02-16T05:10:06.265Z,1014.26
2018-02-16T05:11:06.213Z,1014.26
2018-02-16T05:12:06.161Z,1014.25
2018-02-16T05:13:06.110Z,1014.27
2018-02-16T05:14:06.057Z,1014.27
2018-02-16T05:15:06.012Z,1014.26
2018-02-16T05:16:05.953Z,1014.29
2018-02-16T05:17:05.901Z,1014.30
2018-02-16T05:18:05.849Z,1014.31
2018-02-16T05:19:05.800Z,1014.33
2018-02-16T05:20:05.746Z,1014.37
2018-02-16T05:21:05.693Z,1014.36
2018-02-16T05:22:05.640Z,1014.35
2018-02-16T05:23:05.589Z,1014.38
2018-02-16T05:24:05.541Z,1014.38
2018-02-16T05:25:05.486Z,1014.38
2018-02-16T05:26:05.433Z,1014.39
2018-02-16T05:27:05.381Z,1014.42
2018-02-16T05:28:05.328Z,1014.47
2018-02-16T05:29:05.278Z,1014.47
2018-02-16T05:30:05.225Z,1014.49
2018-02-16T05:31:05.173Z,1014.52
2018-02-16T05:32:05.121Z,1014.52
2018-02-16T05:33:05.069Z,1014.56
2018-02-16T05:34:05.015Z,1014.55
2018-02-16T05:35:04.965Z,1014.57
2018-02-16T05:36:04.945Z,1014.54
2018-02-16T05:37:04.861Z,1014.56
2018-02-16T05:38:04.808Z,1014.63
2018-02-16T05:39:04.757Z,1014.66
2018-02-16T05:40:04.704Z,1014.65
2018-02-16T05:41:04.652Z,1014.68
2018-02-16T05:42:04.599Z,1014.73
2018-02-16T05:43:04.551Z,1014.71
2018-02-16T05:44:04.496Z,1014.71
2018-02-16T05:45:04.443Z,1014.76
2018-02-16T05:46:04.390Z,1014.75
2018-02-16T05:47:04.339Z,1014.74
2018-02-16T05:48:04.287Z,1014.70
2018-02-16T05:49:04.235Z,1014.73
2018-02-16T05:50:04.182Z,1014.73
2018-02-16T05:51:04.130Z,1014.76
2018-02-16T05:52:04.085Z,1014.78
2018-02-16T05:53:04.026Z,1014.77
2018-02-16T05:54:03.973Z,1014.82
2018-02-16T05:55:03.921Z,1014.79
2018-02-16T05:56:03.869Z,1014.80
2018-02-16T05:57:03.817Z,1014.82
2018-02-16T05:58:03.764Z,1014.79
2018-02-16T05:59:03.712Z,1014.82
2018-02-16T06:00:03.660Z,1014.85
2018-02-16T06:01:03.615Z,1014.86
2018-02-16T06:02:03.555Z,1014.86
2018-02-16T06:03:03.503Z,1014.86
2018-02-16T06:04:03.452Z,1014.89
2018-02-16T06:05:03.399Z,1014.87
2018-02-16T06:06:03.346Z,1014.88
2018-02-16T06:07:03.299Z,1014.89
2018-02-16T06:08:03.242Z,1014.93
2018-02-16T06:09:03.190Z,1014.89
2018-02-16T06:10:03.137Z,1014.87
2018-02-16T06:11:03.086Z,1014.91
2018-02-16T06:12:03.033Z,1014.89
2018-02-16T06:13:02.981Z,1014.93
2018-02-16T06:14:02.928Z,1014.90
2018-02-16T06:15:02.876Z,1014.94
2018-02-16T06:16:02.846Z,1014.94
2018-02-16T06:17:02.772Z,1014.93
2018-02-16T06:18:02.719Z,1014.92
2018-02-16T06:19:02.667Z,1014.94
2018-02-16T06:20:02.616Z,1014.94
2018-02-16T06:21:02.564Z,1014.93
2018-02-16T06:22:02.511Z,1014.98
2018-02-16T06:23:02.458Z,1014.95
2018-02-16T06:24:02.407Z,1014.97
2018-02-16T06:25:02.355Z,1014.98
2018-02-16T06:26:02.303Z,1015.01
2018-02-16T06:27:02.250Z,1015.03
2018-02-16T06:28:02.198Z,1015.04
2018-02-16T06:29:02.146Z,1015.02
2018-02-16T06:30:02.094Z,1015.03
2018-02-16T06:31:02.063Z,1015.02
2018-02-16T06:32:01.990Z,1015.03
2018-02-16T06:33:01.938Z,1015.03
2018-02-16T06:34:01.885Z,1015.04
2018-02-16T06:35:01.833Z,1015.04
2018-02-16T06:36:01.781Z,1015.04
2018-02-16T06:37:01.729Z,1015.10
2018-02-16T06:38:01.676Z,1015.10
2018-02-16T06:39:01.624Z,1015.08
2018-02-16T06:40:01.573Z,1015.07
2018-02-16T06:41:01.522Z,1015.10
2018-02-16T06:42:01.468Z,1015.05
2018-02-16T06:43:01.417Z,1015.08
2018-02-16T06:44:01.365Z,1015.12
2018-02-16T06:45:01.313Z,1015.15
2018-02-16T06:46:01.260Z,1015.10
2018-02-16T06:47:01.208Z,1015.13
2018-02-16T06:48:01.161Z,1015.15
2018-02-16T06:49:01.105Z,1015.16
2018-02-16T06:50:01.053Z,1015.19
2018-02-16T06:51:01.001Z,1015.23
2018-02-16T06:52:00.950Z,1015.23
2018-02-16T06:53:00.898Z,1015.33
2018-02-16T06:54:00.887Z,1015.32
2018-02-16T06:55:00.794Z,1015.33
2018-02-16T06:56:00.742Z,1015.40
2018-02-16T06:57:00.791Z,1015.38
2018-02-16T06:58:00.637Z,1015.44
2018-02-16T06:59:00.588Z,1015.45
2018-02-16T07:00:00.546Z,1015.52
2018-02-16T07:01:00.485Z,1015.56
2018-02-16T07:02:00.432Z,1015.58
2018-02-16T07:03:00.380Z,1015.56
2018-02-16T07:04:00.330Z,1015.61
2018-02-16T07:05:00.278Z,1015.64
2018-02-16T07:06:00.226Z,1015.64
2018-02-16T07:07:00.174Z,1015.64
2018-02-16T07:08:00.124Z,1015.67
2018-02-16T07:09:00.073Z,1015.72
2018-02-16T07:10:00.027Z,1015.71
2018-02-16T07:10:59.968Z,1015.75
2018-02-16T07:11:59.918Z,1015.73
2018-02-16T07:12:59.868Z,1015.80
2018-02-16T07:13:59.816Z,1015.79
2018-02-16T07:14:59.766Z,1015.80
2018-02-16T07:15:59.715Z,1015.86
2018-02-16T07:16:59.665Z,1015.83
2018-02-16T07:17:59.617Z,1015.91
2018-02-16T07:18:59.564Z,1015.93
2018-02-16T07:19:59.514Z,1015.97
2018-02-16T07:20:59.464Z,1016.02
2018-02-16T07:21:59.415Z,1015.95
2018-02-16T07:22:59.366Z,1015.95
2018-02-16T07:23:59.317Z,1015.90
2018-02-16T07:24:59.269Z,1015.90
2018-02-16T07:25:59.219Z,1015.90
2018-02-16T07:26:59.173Z,1015.97
2018-02-16T07:27:59.124Z,1015.96
2018-02-16T07:28:59.076Z,1015.98
2018-02-16T07:29:59.028Z,1016.08
2018-02-16T07:30:58.980Z,1016.04
2018-02-16T07:31:58.933Z,1016.00
2018-02-16T07:32:58.885Z,1016.06
2018-02-16T07:33:58.837Z,1016.08
2018-02-16T07:34:58.790Z,1016.03
2018-02-16T07:35:58.742Z,1016.03
2018-02-16T07:36:58.695Z,1016.04
2018-02-16T07:37:58.647Z,1016.04
2018-02-16T07:38:58.599Z,1016.08
2018-02-16T07:39:58.551Z,1016.06
2018-02-16T07:40:58.505Z,1016.06
2018-02-16T07:41:58.467Z,1016.14
2018-02-16T07:42:58.408Z,1016.20
2018-02-16T07:43:58.362Z,1016.17
2018-02-16T07:44:58.314Z,1016.21
2018-02-16T07:45:58.266Z,1016.27
2018-02-16T07:46:58.219Z,1016.24
2018-02-16T07:47:58.172Z,1016.28
2018-02-16T07:48:58.124Z,1016.29
2018-02-16T07:49:58.076Z,1016.31
2018-02-16T07:50:58.031Z,1016.29
2018-02-16T07:51:57.985Z,1016.31
2018-02-16T07:52:57.939Z,1016.33
2018-02-16T07:53:57.892Z,1016.38
2018-02-16T07:54:57.847Z,1016.44
2018-02-16T07:55:57.803Z,1016.45
2018-02-16T07:56:57.757Z,1016.46
2018-02-16T07:57:57.711Z,1016.46
2018-02-16T07:58:57.667Z,1016.47
2018-02-16T07:59:57.624Z,1016.48
2018-02-16T08:00:57.579Z,1016.50
2018-02-16T08:01:57.535Z,1016.57
2018-02-16T08:02:57.492Z,1016.62
2018-02-16T08:03:57.451Z,1016.65
2018-02-16T08:04:57.410Z,1016.62
2018-02-16T08:05:57.363Z,1016.72
2018-02-16T08:06:57.320Z,1016.77
2018-02-16T08:07:57.279Z,1016.89
2018-02-16T08:08:57.236Z,1016.85
2018-02-16T08:09:57.192Z,1016.87
2018-02-16T08:10:57.154Z,1016.93
2018-02-16T08:11:57.110Z,1016.90
2018-02-16T08:12:57.068Z,1016.93
2018-02-16T08:13:57.026Z,1016.93
2018-02-16T08:14:56.985Z,1016.51
2018-02-16T08:15:56.944Z,1016.47
2018-02-16T08:16:56.934Z,1016.42
2018-02-16T08:17:56.861Z,1016.51
2018-02-16T08:18:56.820Z,1016.48
2018-02-16T08:19:56.779Z,1016.50
2018-02-16T08:20:56.738Z,1016.47
2018-02-16T08:21:56.695Z,1016.44
2018-02-16T08:22:56.654Z,1016.80
2018-02-16T08:23:56.612Z,1016.76
2018-02-16T08:24:56.571Z,1016.87
2018-02-16T08:25:56.528Z,1016.83
2018-02-16T08:26:56.487Z,1016.51
2018-02-16T08:27:56.446Z,1016.90
2018-02-16T08:28:56.404Z,1016.90
2018-02-16T08:29:56.365Z,1016.85
2018-02-16T08:30:56.321Z,1016.91
2018-02-16T08:31:56.287Z,1016.91
2018-02-16T08:32:56.240Z,1016.91
2018-02-16T08:33:56.197Z,1016.97
2018-02-16T08:34:56.157Z,1017.14
2018-02-16T08:35:56.115Z,1017.27
2018-02-16T08:36:56.075Z,1017.29
2018-02-16T08:37:56.055Z,1017.27
2018-02-16T08:38:55.994Z,1017.27
2018-02-16T08:39:55.955Z,1017.38
2018-02-16T08:40:55.915Z,1017.40
2018-02-16T08:41:55.874Z,1017.40
2018-02-16T08:42:55.835Z,1017.32
2018-02-16T08:43:55.795Z,1017.30
2018-02-16T08:44:55.756Z,1017.30
2018-02-16T08:45:55.716Z,1017.30
2018-02-16T08:46:55.678Z,1017.29
2018-02-16T08:47:55.639Z,1017.35
2018-02-16T08:48:55.602Z,1017.49
2018-02-16T08:49:55.562Z,1017.45
2018-02-16T08:50:55.522Z,1017.52
2018-02-16T08:51:55.485Z,1017.58
2018-02-16T08:52:55.448Z,1017.53
2018-02-16T08:53:55.408Z,1017.46
2018-02-16T08:54:55.371Z,1017.43
2018-02-16T08:55:55.334Z,1017.54
2018-02-16T08:56:55.297Z,1016.97
2018-02-16T08:57:55.258Z,1017.01
2018-02-16T08:58:55.221Z,1017.35
2018-02-16T08:59:55.184Z,1017.54
2018-02-16T09:00:55.146Z,1017.41
2018-02-16T09:01:55.108Z,1017.36
2018-02-16T09:02:55.073Z,1017.04
2018-02-16T09:03:55.037Z,1017.20
2018-02-16T09:04:54.995Z,1017.16
2018-02-16T09:05:54.956Z,1017.14
2018-02-16T09:06:54.917Z,1017.09
2018-02-16T09:07:54.891Z,1017.13
2018-02-16T09:08:54.847Z,1017.12
2018-02-16T09:09:54.804Z,1017.12
2018-02-16T09:10:54.765Z,1017.19
2018-02-16T09:11:54.728Z,1017.16
2018-02-16T09:12:54.690Z,1017.21
2018-02-16T09:13:54.654Z,1017.15
2018-02-16T09:14:54.616Z,1017.14
2018-02-16T09:15:54.576Z,1017.08
2018-02-16T09:16:54.537Z,1017.14
2018-02-16T09:17:54.500Z,1017.16
2018-02-16T09:18:54.461Z,1017.18
2018-02-16T09:19:54.423Z,1017.18
2018-02-16T09:20:54.385Z,1017.18
2018-02-16T09:21:54.347Z,1017.18
2018-02-16T09:22:54.309Z,1017.23
2018-02-16T09:23:54.271Z,1017.17
2018-02-16T09:24:54.234Z,1017.20
2018-02-16T09:25:54.195Z,1017.22
2018-02-16T09:26:54.157Z,1017.20
2018-02-16T09:27:54.120Z,1017.20
2018-02-16T09:28:54.082Z,1017.26
2018-02-16T09:29:54.043Z,1017.28
2018-02-16T09:30:54.006Z,1017.30
2018-02-16T09:31:53.968Z,1017.30
2018-02-16T09:32:53.929Z,1017.28
2018-02-16T09:33:53.892Z,1017.32
2018-02-16T09:34:53.854Z,1017.32
2018-02-16T09:35:53.820Z,1017.30
2018-02-16T09:36:53.778Z,1017.30
2018-02-16T09:37:53.740Z,1017.37
2018-02-16T09:38:53.704Z,1017.33
2018-02-16T09:39:53.666Z,1017.37
2018-02-16T09:40:53.629Z,1017.36
2018-02-16T09:41:53.589Z,1017.35
2018-02-16T09:42:53.553Z,1017.38
2018-02-16T09:43:53.515Z,1017.31
2018-02-16T09:44:53.478Z,1017.24
2018-02-16T09:45:53.439Z,1017.33
2018-02-16T09:46:53.401Z,1017.31
2018-02-16T09:47:53.363Z,1017.39
2018-02-16T09:48:53.325Z,1017.40
2018-02-16T09:49:53.284Z,1017.41
2018-02-16T09:50:53.251Z,1017.39
2018-02-16T09:51:53.208Z,1017.42
2018-02-16T09:52:53.166Z,1017.41
2018-02-16T09:53:53.125Z,1017.38
2018-02-16T09:54:53.086Z,1017.43
2018-02-16T09:55:53.046Z,1017.43
2018-02-16T09:56:53.006Z,1017.46
2018-02-16T09:57:52.964Z,1017.54
2018-02-16T09:58:52.923Z,1017.51
2018-02-16T09:59:52.882Z,1017.60
2018-02-16T10:00:52.854Z,1017.59
2018-02-16T10:01:52.799Z,1017.55
2018-02-16T10:02:52.758Z,1017.57
2018-02-16T10:03:52.716Z,1017.54
2018-02-16T10:04:52.674Z,1017.57
2018-02-16T10:05:52.634Z,1017.54
2018-02-16T10:06:52.589Z,1017.52
2018-02-16T10:07:52.547Z,1017.65
2018-02-16T10:08:52.504Z,1017.60
2018-02-16T10:09:52.461Z,1017.63
2018-02-16T10:10:52.417Z,1017.64
2018-02-16T10:11:52.386Z,1017.68
2018-02-16T10:12:52.360Z,1017.62
2018-02-16T10:13:52.289Z,1017.65
2018-02-16T10:14:52.245Z,1017.66
2018-02-16T10:15:52.202Z,1017.68
2018-02-16T10:16:52.159Z,1017.67
2018-02-16T10:17:52.115Z,1017.58
2018-02-16T10:18:52.070Z,1017.62
2018-02-16T10:19:52.027Z,1017.61
2018-02-16T10:20:51.985Z,1017.63
2018-02-16T10:21:51.939Z,1017.66
2018-02-16T10:22:51.897Z,1017.67
2018-02-16T10:23:51.853Z,1017.64
2018-02-16T10:24:51.809Z,1017.67
2018-02-16T10:25:51.813Z,1017.69
2018-02-16T10:26:51.720Z,1017.62
2018-02-16T10:27:51.676Z,1017.64
2018-02-16T10:28:51.633Z,1017.63
2018-02-16T10:29:51.588Z,1017.73
2018-02-16T10:30:51.544Z,1017.81
2018-02-16T10:31:51.500Z,1017.81
2018-02-16T10:32:51.456Z,1017.83
2018-02-16T10:33:51.410Z,1017.82
2018-02-16T10:34:51.367Z,1017.87
2018-02-16T10:35:51.323Z,1017.82
2018-02-16T10:36:51.279Z,1017.83
2018-02-16T10:37:51.234Z,1017.89
2018-02-16T10:38:51.189Z,1017.86
2018-02-16T10:39:51.146Z,1017.92
2018-02-16T10:40:51.100Z,1017.96
2018-02-16T10:41:51.072Z,1017.85
2018-02-16T10:42:51.013Z,1017.90
2018-02-16T10:43:50.968Z,1017.97
2018-02-16T10:44:50.924Z,1017.95
2018-02-16T10:45:50.879Z,1018.02
2018-02-16T10:46:50.834Z,1018.02
2018-02-16T10:47:50.790Z,1018.04
2018-02-16T10:48:50.745Z,1018.00
2018-02-16T10:49:50.769Z,1018.01
2018-02-16T10:50:50.656Z,1018.06
2018-02-16T10:51:50.612Z,1018.04
2018-02-16T10:52:50.567Z,1018.05
2018-02-16T10:53:50.522Z,1018.00
2018-02-16T10:54:50.478Z,1017.99
2018-02-16T10:55:50.433Z,1018.01
2018-02-16T10:56:50.389Z,1017.97
2018-02-16T10:57:50.344Z,1017.99
2018-02-16T10:58:50.299Z,1018.03
2018-02-16T10:59:50.255Z,1017.97
2018-02-16T11:00:50.210Z,1017.92
2018-02-16T11:01:50.164Z,1017.98
2018-02-16T11:02:50.119Z,1017.98
2018-02-16T11:03:50.075Z,1017.96
2018-02-16T11:04:50.031Z,1017.95
2018-02-16T11:05:49.984Z,1017.94
2018-02-16T11:06:49.940Z,1017.96
2018-02-16T11:07:49.897Z,1018.00
2018-02-16T11:08:49.853Z,1017.99
2018-02-16T11:09:49.804Z,1017.99
2018-02-16T11:10:49.760Z,1018.05
2018-02-16T11:11:49.715Z,1017.98
2018-02-16T11:12:49.673Z,1018.00
2018-02-16T11:13:49.623Z,1018.03
2018-02-16T11:14:49.579Z,1017.98
2018-02-16T11:15:49.533Z,1018.01
2018-02-16T11:16:49.489Z,1017.95
2018-02-16T11:17:49.443Z,1018.00
2018-02-16T11:18:49.398Z,1018.04
2018-02-16T11:19:49.353Z,1017.99
2018-02-16T11:20:49.308Z,1018.02
2018-02-16T11:21:49.262Z,1018.04
2018-02-16T11:22:49.217Z,1018.12
2018-02-16T11:23:49.176Z,1018.04
2018-02-16T11:24:49.127Z,1018.05
2018-02-16T11:25:49.080Z,1018.04
2018-02-16T11:26:49.035Z,1018.19
2018-02-16T11:27:48.990Z,1018.02
2018-02-16T11:28:48.945Z,1018.07
2018-02-16T11:29:48.899Z,1018.21
2018-02-16T11:30:48.852Z,1018.22
2018-02-16T11:31:48.808Z,1018.15
2018-02-16T11:32:48.763Z,1018.14
2018-02-16T11:33:48.715Z,1018.17
2018-02-16T11:34:48.671Z,1018.25
2018-02-16T11:35:48.626Z,1018.14
2018-02-16T11:36:48.579Z,1018.17
2018-02-16T11:37:48.532Z,1018.18
2018-02-16T11:38:48.644Z,1018.15
2018-02-16T11:39:48.443Z,1018.15
2018-02-16T11:40:48.397Z,1018.14
2018-02-16T11:41:48.350Z,1018.18
2018-02-16T11:42:48.306Z,1018.13
2018-02-16T11:43:48.263Z,1018.15
2018-02-16T11:44:48.244Z,1018.12
2018-02-16T11:45:48.168Z,1018.13
2018-02-16T11:46:48.124Z,1018.12
2018-02-16T11:47:48.078Z,1018.23
2018-02-16T11:48:48.033Z,1018.25
2018-02-16T11:49:47.985Z,1018.11
2018-02-16T11:50:47.942Z,1018.11
2018-02-16T11:51:47.894Z,1018.15
2018-02-16T11:52:47.850Z,1018.21
2018-02-16T11:53:47.804Z,1018.15
2018-02-16T11:54:47.758Z,1018.24
2018-02-16T11:55:47.713Z,1018.23
2018-02-16T11:56:47.667Z,1018.16
2018-02-16T11:57:47.621Z,1018.18
2018-02-16T11:58:47.575Z,1018.10
2018-02-16T11:59:47.530Z,1018.23
2018-02-16T12:00:47.485Z,1018.26
2018-02-16T12:01:47.438Z,1018.30
2018-02-16T12:02:47.392Z,1018.27
2018-02-16T12:03:47.347Z,1018.23
2018-02-16T12:04:47.302Z,1018.24